Time;durP1;ratioP1;P1;durP2;ratioP2;P2;SDS_P1;SDS_P2;PMS_P1;PMS_P2;Temp;Humidity;BMP_temperature;BMP_pressure;BME280_temperature;BME280_humidity;BME280_pressure;Samples;Min_cycle;Max_cycle;Signal;HPM_P1;HPM_P2
2023/09/15 00:00:19;;;;;;;6.70;3.00;;;13.20;99.90;;;;;;5012415;28;20575;-75
2023/09/15 00:02:47;;;;;;;3.83;2.10;;;13.20;99.90;;;;;;5007652;28;20179;-76
2023/09/15 00:05:13;;;;;;;4.03;2.10;;;13.20;99.90;;;;;;5014673;28;20425;-75
2023/09/15 00:07:38;;;;;;;10.80;2.90;;;13.10;99.90;;;;;;5020085;28;20461;-76
2023/09/15 00:10:06;;;;;;;4.93;2.20;;;13.10;99.90;;;;;;5017897;28;20822;-75
2023/09/15 00:12:32;;;;;;;5.10;2.20;;;13.00;99.90;;;;;;5013198;28;20176;-75
2023/09/15 00:14:58;;;;;;;3.20;2.10;;;13.00;99.90;;;;;;5010812;28;20429;-75
2023/09/15 00:17:25;;;;;;;5.97;2.73;;;13.00;99.90;;;;;;5015646;28;20211;-75
2023/09/15 00:19:51;;;;;;;4.50;2.40;;;12.90;99.90;;;;;;5014988;28;20234;-75
2023/09/15 00:22:16;;;;;;;3.43;1.50;;;12.90;99.90;;;;;;5015093;28;20420;-74
2023/09/15 00:24:42;;;;;;;12.30;1.63;;;12.90;99.90;;;;;;5011683;28;20434;-75
2023/09/15 00:27:09;;;;;;;4.70;2.10;;;12.90;99.90;;;;;;5016755;28;20215;-74
2023/09/15 00:29:34;;;;;;;5.47;2.20;;;12.90;99.90;;;;;;5018558;28;20221;-75
2023/09/15 00:32:00;;;;;;;6.77;2.67;;;12.80;99.90;;;;;;5017239;28;20923;-75
2023/09/15 00:34:25;;;;;;;4.37;2.50;;;12.90;99.90;;;;;;5018691;28;20179;-76
2023/09/15 00:36:51;;;;;;;3.97;1.90;;;12.90;99.90;;;;;;5013363;28;20190;-75
2023/09/15 00:39:17;;;;;;;4.70;2.47;;;12.80;99.90;;;;;;5013156;28;20235;-75
2023/09/15 00:41:42;;;;;;;2.80;1.63;;;12.80;99.90;;;;;;5020126;28;20187;-75
2023/09/15 00:44:08;;;;;;;3.53;1.60;;;12.70;99.90;;;;;;5016649;28;20314;-75
2023/09/15 00:46:34;;;;;;;4.43;1.87;;;12.80;99.90;;;;;;5015649;28;20179;-76
2023/09/15 00:49:00;;;;;;;6.30;2.87;;;12.70;99.90;;;;;;5000667;28;20204;-76
2023/09/15 00:51:26;;;;;;;5.30;2.07;;;12.70;99.90;;;;;;5013142;28;20468;-76
2023/09/15 00:53:54;;;;;;;5.03;1.93;;;12.70;99.90;;;;;;5012979;28;20179;-75
2023/09/15 00:56:20;;;;;;;3.80;2.30;;;12.60;99.90;;;;;;5013325;28;20435;-76
2023/09/15 00:58:46;;;;;;;3.90;1.87;;;12.60;99.90;;;;;;5011729;28;20834;-75
2023/09/15 01:01:13;;;;;;;4.17;1.67;;;12.60;99.90;;;;;;5014770;28;20195;-76
2023/09/15 01:03:42;;;;;;;4.67;2.30;;;12.60;99.90;;;;;;5010906;28;20468;-76
2023/09/15 01:06:09;;;;;;;11.43;2.97;;;12.60;99.90;;;;;;5015019;28;20426;-75
2023/09/15 01:08:34;;;;;;;9.90;2.00;;;12.70;99.90;;;;;;5017431;28;20564;-76
2023/09/15 01:11:04;;;;;;;5.90;2.27;;;12.60;99.90;;;;;;5010513;28;20508;-78
2023/09/15 01:13:34;;;;;;;3.57;1.90;;;12.60;99.90;;;;;;5009699;28;20209;-75
2023/09/15 01:16:21;;;;;;;4.50;2.50;;;12.60;99.90;;;;;;5010185;28;20418;-75
2023/09/15 01:18:50;;;;;;;7.13;2.40;;;12.60;99.90;;;;;;5008795;28;20480;-75
2023/09/15 01:21:33;;;;;;;6.73;1.90;;;12.60;99.90;;;;;;5016551;28;20425;-75
2023/09/15 01:24:38;;;;;;;3.07;1.97;;;12.60;99.90;;;;;;5015830;28;20513;-74
2023/09/15 01:27:15;;;;;;;4.33;1.60;;;12.60;99.90;;;;;;5013436;28;20487;-74
2023/09/15 01:29:56;;;;;;;5.70;2.23;;;12.60;99.90;;;;;;5012857;28;20454;-75
2023/09/15 01:32:22;;;;;;;5.30;2.13;;;12.50;99.90;;;;;;5010299;28;20456;-76
2023/09/15 01:34:50;;;;;;;3.87;1.87;;;12.40;99.90;;;;;;5009937;28;20526;-75
2023/09/15 01:37:16;;;;;;;15.13;3.00;;;12.40;99.90;;;;;;5012250;28;20959;-75
2023/09/15 01:39:42;;;;;;;4.20;2.27;;;12.40;99.90;;;;;;5009683;28;20478;-76
2023/09/15 01:42:08;;;;;;;4.33;1.30;;;12.40;99.90;;;;;;5011162;28;20938;-77
2023/09/15 01:44:34;;;;;;;4.67;2.13;;;12.40;99.90;;;;;;5007857;28;20443;-75
2023/09/15 01:46:59;;;;;;;5.20;1.80;;;12.40;99.90;;;;;;5012181;28;20210;-75
2023/09/15 01:49:27;;;;;;;3.33;1.90;;;12.40;99.90;;;;;;5010599;28;20281;-76
2023/09/15 01:51:55;;;;;;;4.83;2.10;;;12.30;99.90;;;;;;5013245;28;20611;-75
2023/09/15 01:54:21;;;;;;;5.53;2.90;;;12.30;99.90;;;;;;5001746;28;20457;-75
2023/09/15 01:56:49;;;;;;;4.07;2.20;;;12.30;99.90;;;;;;5011956;28;20434;-75
2023/09/15 01:59:15;;;;;;;7.13;2.00;;;12.30;99.90;;;;;;5008185;28;20456;-75
2023/09/15 02:01:41;;;;;;;3.10;1.47;;;12.20;99.90;;;;;;5018287;28;20421;-75
2023/09/15 02:04:06;;;;;;;2.90;1.33;;;12.10;99.90;;;;;;5011115;28;20430;-75
2023/09/15 02:06:32;;;;;;;3.30;1.57;;;12.00;99.90;;;;;;5021104;28;20540;-76
2023/09/15 02:08:58;;;;;;;4.47;2.37;;;12.00;99.90;;;;;;5014879;28;20722;-75
2023/09/15 02:11:23;;;;;;;3.17;1.93;;;12.10;99.90;;;;;;5018719;28;20190;-76
2023/09/15 02:13:49;;;;;;;5.13;2.60;;;12.10;99.90;;;;;;5013859;28;20819;-76
2023/09/15 02:16:15;;;;;;;3.77;2.13;;;12.10;99.90;;;;;;5017919;28;20288;-75
2023/09/15 02:18:40;;;;;;;4.87;1.70;;;12.10;99.90;;;;;;5019925;28;20211;-75
2023/09/15 02:21:09;;;;;;;3.50;1.93;;;12.10;99.90;;;;;;5022457;28;20186;-75
2023/09/15 02:23:35;;;;;;;2.17;1.23;;;12.00;99.90;;;;;;5015108;28;20187;-76
2023/09/15 02:26:04;;;;;;;4.10;1.60;;;12.10;99.90;;;;;;5016447;28;20422;-75
2023/09/15 02:28:31;;;;;;;4.30;1.97;;;12.10;99.90;;;;;;5022918;28;20214;-75
2023/09/15 02:30:57;;;;;;;2.60;1.70;;;11.90;99.90;;;;;;5014252;28;20429;-75
2023/09/15 02:33:23;;;;;;;3.87;1.83;;;12.00;99.90;;;;;;5015782;28;20953;-75
2023/09/15 02:35:50;;;;;;;4.30;1.90;;;12.00;99.90;;;;;;5017509;28;20500;-76
2023/09/15 02:38:15;;;;;;;4.13;1.80;;;11.90;99.90;;;;;;5017618;28;20488;-75
2023/09/15 02:40:41;;;;;;;2.47;1.47;;;11.90;99.90;;;;;;5017828;28;20445;-75
2023/09/15 02:43:10;;;;;;;7.30;1.97;;;11.90;99.90;;;;;;5015969;28;20187;-75
2023/09/15 02:45:36;;;;;;;5.57;1.87;;;12.00;99.90;;;;;;5016723;28;20194;-74
2023/09/15 02:48:05;;;;;;;2.77;1.60;;;12.00;99.90;;;;;;5019732;28;20473;-72
2023/09/15 02:50:31;;;;;;;4.03;1.50;;;11.90;99.90;;;;;;5015804;28;20421;-75
2023/09/15 02:52:57;;;;;;;2.53;1.40;;;11.90;99.90;;;;;;5017270;28;20436;-74
2023/09/15 02:55:22;;;;;;;6.57;2.27;;;11.90;99.90;;;;;;5017522;28;20504;-76
2023/09/15 02:57:55;;;;;;;4.03;1.87;;;11.80;99.90;;;;;;5011055;28;20229;-75
2023/09/15 03:00:21;;;;;;;3.23;1.63;;;11.80;99.90;;;;;;5016980;28;20199;-76
2023/09/15 03:02:47;;;;;;;5.77;1.83;;;11.80;99.90;;;;;;5024756;28;20428;-76
2023/09/15 03:05:13;;;;;;;3.13;1.70;;;11.80;99.90;;;;;;5019189;28;20425;-75
2023/09/15 03:07:39;;;;;;;3.97;1.20;;;11.80;99.90;;;;;;5009960;28;20505;-74
2023/09/15 03:10:14;;;;;;;4.13;2.30;;;11.70;99.90;;;;;;5012573;28;20442;-75
2023/09/15 03:12:39;;;;;;;2.10;1.33;;;11.80;99.90;;;;;;5017808;28;20409;-76
2023/09/15 03:15:07;;;;;;;2.53;1.27;;;11.70;99.90;;;;;;5016230;28;20893;-76
2023/09/15 03:17:39;;;;;;;3.20;1.60;;;11.70;99.90;;;;;;5020805;28;20178;-75
2023/09/15 03:20:13;;;;;;;4.27;1.83;;;11.70;99.90;;;;;;5018561;28;20450;-75
2023/09/15 03:22:43;;;;;;;3.63;2.03;;;11.70;99.90;;;;;;5019966;28;20425;-75
2023/09/15 03:25:09;;;;;;;3.97;2.27;;;11.60;99.90;;;;;;5013149;28;20923;-75
2023/09/15 03:27:35;;;;;;;3.93;1.70;;;11.50;99.90;;;;;;5021550;28;20465;-75
2023/09/15 03:30:01;;;;;;;3.57;1.40;;;11.50;99.90;;;;;;5014690;28;20452;-76
2023/09/15 03:32:27;;;;;;;3.07;1.50;;;11.50;99.90;;;;;;5014423;28;20557;-76
2023/09/15 03:34:53;;;;;;;2.83;1.50;;;11.50;99.90;;;;;;5015997;28;20512;-75
2023/09/15 03:37:18;;;;;;;2.23;1.13;;;11.50;99.90;;;;;;5015337;28;20187;-76
2023/09/15 03:39:44;;;;;;;2.90;1.47;;;11.60;99.90;;;;;;5009538;28;20692;-76
2023/09/15 03:42:10;;;;;;;3.40;1.90;;;11.60;99.90;;;;;;5021821;28;20194;-74
2023/09/15 03:44:35;;;;;;;3.83;1.90;;;11.60;99.90;;;;;;5016540;28;20568;-75
2023/09/15 03:47:02;;;;;;;2.23;1.43;;;11.60;99.90;;;;;;5016760;28;20206;-75
2023/09/15 03:49:27;;;;;;;3.13;1.40;;;11.50;99.90;;;;;;5011854;28;20297;-75
2023/09/15 03:51:53;;;;;;;2.97;1.70;;;11.50;99.90;;;;;;5018317;28;20421;-75
2023/09/15 03:54:18;;;;;;;3.27;1.80;;;11.50;99.90;;;;;;5011540;28;20234;-75
2023/09/15 03:56:44;;;;;;;3.97;1.60;;;11.50;99.90;;;;;;5016801;28;20670;-75
2023/09/15 03:59:10;;;;;;;3.33;1.37;;;11.50;99.90;;;;;;5013514;28;20204;-75
2023/09/15 04:01:35;;;;;;;6.67;1.70;;;11.50;99.90;;;;;;5017770;28;20709;-76
2023/09/15 04:04:02;;;;;;;2.00;1.23;;;11.50;99.90;;;;;;5015816;28;20194;-75
2023/09/15 04:06:28;;;;;;;3.40;1.70;;;11.50;99.90;;;;;;5021200;28;20178;-75
2023/09/15 04:08:55;;;;;;;5.03;1.27;;;11.40;99.90;;;;;;5033983;28;20494;-77
2023/09/15 04:11:21;;;;;;;5.50;1.70;;;11.40;99.90;;;;;;5044192;28;20182;-78
2023/09/15 04:13:46;;;;;;;4.87;1.60;;;11.40;99.90;;;;;;5036080;28;20447;-76
2023/09/15 04:16:12;;;;;;;3.83;1.57;;;11.40;99.90;;;;;;5036372;28;20194;-75
2023/09/15 04:18:38;;;;;;;6.50;1.63;;;11.40;99.90;;;;;;5015637;28;20211;-75
2023/09/15 04:21:04;;;;;;;5.03;1.70;;;11.40;99.90;;;;;;5010833;28;20215;-75
2023/09/15 04:23:30;;;;;;;3.63;1.80;;;11.40;99.90;;;;;;5016699;28;20281;-75
2023/09/15 04:25:56;;;;;;;4.60;1.23;;;11.40;99.90;;;;;;5015516;28;20871;-74
2023/09/15 04:28:21;;;;;;;3.07;1.57;;;11.40;99.90;;;;;;5018339;28;20469;-76
2023/09/15 04:30:48;;;;;;;2.53;1.33;;;11.50;99.90;;;;;;5013520;28;20734;-75
2023/09/15 04:33:13;;;;;;;5.20;2.23;;;11.30;99.90;;;;;;5012645;28;20214;-75
2023/09/15 04:35:39;;;;;;;2.90;1.43;;;11.40;99.90;;;;;;5011405;28;20418;-75
2023/09/15 04:38:06;;;;;;;4.20;1.90;;;11.50;99.90;;;;;;5016644;28;20635;-75
2023/09/15 04:40:31;;;;;;;3.10;1.37;;;11.40;99.90;;;;;;5012887;28;20199;-75
2023/09/15 04:42:59;;;;;;;2.97;1.60;;;11.30;99.90;;;;;;5015731;28;20476;-73
2023/09/15 04:45:25;;;;;;;3.93;1.87;;;11.40;99.90;;;;;;5013296;28;20170;-74
2023/09/15 04:47:50;;;;;;;3.87;1.50;;;11.40;99.90;;;;;;5015573;28;20544;-73
2023/09/15 04:50:16;;;;;;;3.20;1.60;;;11.30;99.90;;;;;;5011770;28;20198;-75
2023/09/15 04:52:41;;;;;;;3.97;1.90;;;11.10;99.90;;;;;;5016297;28;20186;-76
2023/09/15 04:55:07;;;;;;;3.33;1.70;;;11.10;99.90;;;;;;5013903;28;20181;-74
2023/09/15 04:57:33;;;;;;;2.80;1.60;;;11.10;99.90;;;;;;5017018;28;20191;-70
2023/09/15 05:00:00;;;;;;;3.10;1.60;;;11.10;99.90;;;;;;5007541;28;20294;-74
2023/09/15 05:02:25;;;;;;;2.30;1.30;;;11.20;99.90;;;;;;5019153;28;20194;-75
2023/09/15 05:04:52;;;;;;;4.27;2.30;;;11.20;99.90;;;;;;5017628;28;20433;-77
2023/09/15 05:07:19;;;;;;;3.70;1.70;;;11.10;99.90;;;;;;5037577;28;20264;-78
2023/09/15 05:09:45;;;;;;;7.60;1.60;;;11.10;99.90;;;;;;5033114;28;20451;-77
2023/09/15 05:12:11;;;;;;;3.13;1.43;;;11.10;99.90;;;;;;5036604;28;20438;-77
2023/09/15 05:14:37;;;;;;;3.47;1.67;;;11.20;99.90;;;;;;5034025;28;20452;-77
2023/09/15 05:17:03;;;;;;;3.03;1.70;;;11.20;99.90;;;;;;5036212;28;20221;-75
2023/09/15 05:19:29;;;;;;;3.17;1.40;;;11.20;99.90;;;;;;5014551;28;20582;-75
2023/09/15 05:21:54;;;;;;;3.73;1.90;;;11.30;99.90;;;;;;5012671;28;20432;-75
2023/09/15 05:24:20;;;;;;;3.80;1.77;;;11.30;99.90;;;;;;5015404;28;20175;-75
2023/09/15 05:26:46;;;;;;;3.63;1.70;;;11.40;99.90;;;;;;5016797;28;20248;-75
2023/09/15 05:29:11;;;;;;;4.23;1.70;;;11.30;99.90;;;;;;5011847;28;20197;-75
2023/09/15 05:31:37;;;;;;;2.77;1.67;;;11.40;99.90;;;;;;5011749;28;20257;-74
2023/09/15 05:34:03;;;;;;;3.07;1.93;;;11.40;99.90;;;;;;5011034;28;20187;-74
2023/09/15 05:36:29;;;;;;;7.77;2.30;;;11.30;99.90;;;;;;5019044;28;20686;-75
2023/09/15 05:38:54;;;;;;;5.50;2.37;;;11.30;99.90;;;;;;5007709;28;20572;-75
2023/09/15 05:41:20;;;;;;;2.73;1.70;;;11.40;99.90;;;;;;5013298;28;20230;-76
2023/09/15 05:43:46;;;;;;;3.50;1.67;;;11.50;99.90;;;;;;5009354;28;20704;-76
2023/09/15 05:46:12;;;;;;;27.33;2.17;;;11.50;99.90;;;;;;5011479;28;20210;-76
2023/09/15 05:48:37;;;;;;;6.93;2.07;;;11.60;99.90;;;;;;5012879;28;20561;-75
2023/09/15 05:51:04;;;;;;;3.83;1.57;;;11.60;99.90;;;;;;5009550;28;20195;-75
2023/09/15 05:53:31;;;;;;;4.30;2.50;;;11.70;99.90;;;;;;5011582;28;20652;-75
2023/09/15 05:55:57;;;;;;;6.00;2.00;;;11.80;99.90;;;;;;5010729;28;20469;-75
2023/09/15 05:58:23;;;;;;;6.70;2.40;;;11.80;99.90;;;;;;5009520;28;20817;-75
2023/09/15 06:00:50;;;;;;;4.63;2.47;;;11.90;99.90;;;;;;5006884;28;20418;-75
2023/09/15 06:03:16;;;;;;;3.23;1.83;;;11.90;99.90;;;;;;5018518;28;20193;-74
2023/09/15 06:05:42;;;;;;;11.73;2.57;;;12.00;99.90;;;;;;5012604;28;20533;-75
2023/09/15 06:08:08;;;;;;;2.97;1.67;;;12.10;99.90;;;;;;5021212;28;20289;-75
2023/09/15 06:10:35;;;;;;;3.80;1.60;;;12.10;99.90;;;;;;5012028;28;20657;-75
2023/09/15 06:13:01;;;;;;;3.80;1.87;;;12.30;99.90;;;;;;5009662;28;20434;-75
2023/09/15 06:15:26;;;;;;;6.33;2.80;;;12.30;99.90;;;;;;5009722;28;20508;-76
2023/09/15 06:17:52;;;;;;;4.13;2.17;;;12.30;99.90;;;;;;5009423;28;20199;-75
2023/09/15 06:20:17;;;;;;;8.53;2.50;;;12.40;99.90;;;;;;5000939;28;20211;-75
2023/09/15 06:22:43;;;;;;;9.33;3.33;;;12.50;99.90;;;;;;5001513;28;20197;-75
2023/09/15 06:25:09;;;;;;;11.20;2.40;;;12.50;99.90;;;;;;5007611;28;20186;-75
2023/09/15 06:27:34;;;;;;;4.70;2.13;;;12.70;99.90;;;;;;5011629;28;20210;-76
2023/09/15 06:30:03;;;;;;;5.30;2.67;;;12.70;99.90;;;;;;5003479;28;20203;-72
2023/09/15 06:32:29;;;;;;;2.97;2.10;;;12.80;99.90;;;;;;5006559;28;20179;-75
2023/09/15 06:34:54;;;;;;;5.80;2.00;;;12.90;99.90;;;;;;5002305;28;20856;-75
2023/09/15 06:37:20;;;;;;;3.97;2.53;;;13.00;99.90;;;;;;5011715;28;20187;-75
2023/09/15 06:39:45;;;;;;;4.70;2.30;;;13.10;99.90;;;;;;5006519;28;20688;-75
2023/09/15 06:42:11;;;;;;;8.33;3.13;;;13.20;99.90;;;;;;5001672;28;20183;-74
2023/09/15 06:44:37;;;;;;;4.27;2.20;;;13.20;99.90;;;;;;4996587;28;20285;-75
2023/09/15 06:47:03;;;;;;;5.77;2.70;;;13.40;99.90;;;;;;5002752;28;20214;-75
2023/09/15 06:49:30;;;;;;;6.43;2.10;;;13.50;99.90;;;;;;5007550;28;20449;-76
2023/09/15 06:51:55;;;;;;;6.77;2.90;;;13.60;99.90;;;;;;5005248;28;20511;-75
2023/09/15 06:54:21;;;;;;;6.30;2.37;;;13.70;99.90;;;;;;5007212;28;20503;-76
2023/09/15 06:56:47;;;;;;;5.00;1.93;;;13.80;99.90;;;;;;5012109;28;20219;-75
2023/09/15 06:59:13;;;;;;;11.50;2.97;;;13.90;99.90;;;;;;5006402;28;20260;-75
2023/09/15 07:01:39;;;;;;;9.07;3.23;;;14.10;99.90;;;;;;5014102;28;20437;-76
2023/09/15 07:04:05;;;;;;;8.73;3.57;;;14.20;99.90;;;;;;5004857;28;20592;-76
2023/09/15 07:06:31;;;;;;;8.67;3.23;;;14.40;99.90;;;;;;5011612;28;20418;-75
2023/09/15 07:08:57;;;;;;;11.43;3.57;;;14.60;99.90;;;;;;5008927;28;20450;-75
2023/09/15 07:11:23;;;;;;;7.03;3.90;;;14.90;99.90;;;;;;5010313;28;20863;-75
2023/09/15 07:13:48;;;;;;;6.57;3.47;;;15.40;99.90;;;;;;5009728;28;20189;-74
2023/09/15 07:16:14;;;;;;;16.43;3.77;;;15.70;99.90;;;;;;5010023;28;20175;-74
2023/09/15 07:18:40;;;;;;;9.60;3.40;;;16.00;99.90;;;;;;5010516;28;20320;-75
2023/09/15 07:21:05;;;;;;;9.47;3.90;;;16.30;99.90;;;;;;5010689;28;20184;-75
2023/09/15 07:23:31;;;;;;;11.63;3.40;;;16.60;99.90;;;;;;5010639;28;20185;-74
2023/09/15 07:25:59;;;;;;;7.07;3.80;;;17.10;99.90;;;;;;5016340;28;20179;-75
2023/09/15 07:28:24;;;;;;;8.87;4.47;;;17.70;99.90;;;;;;5002369;28;20203;-75
2023/09/15 07:30:50;;;;;;;7.10;3.93;;;18.20;99.90;;;;;;5015282;28;20417;-76
2023/09/15 07:33:16;;;;;;;6.70;3.10;;;18.90;99.90;;;;;;5011187;28;20180;-74
2023/09/15 07:35:42;;;;;;;5.73;3.30;;;19.60;99.90;;;;;;5007491;28;20426;-75
2023/09/15 07:38:07;;;;;;;6.90;2.83;;;19.70;99.90;;;;;;5008069;28;20322;-75
2023/09/15 07:40:33;;;;;;;7.20;4.17;;;19.90;99.90;;;;;;5018332;28;20194;-74
2023/09/15 07:42:59;;;;;;;8.40;3.47;;;20.40;99.90;;;;;;5012226;28;20192;-74
2023/09/15 07:45:25;;;;;;;7.27;2.97;;;20.70;99.90;;;;;;5013459;28;20516;-73
2023/09/15 07:47:51;;;;;;;8.77;3.20;;;21.10;99.90;;;;;;5014543;28;20206;-73
2023/09/15 07:50:17;;;;;;;7.47;4.40;;;21.50;99.90;;;;;;5013555;28;20205;-75
2023/09/15 07:52:45;;;;;;;6.60;3.67;;;22.00;99.90;;;;;;5014556;28;20540;-75
2023/09/15 07:55:10;;;;;;;6.43;3.03;;;21.90;99.90;;;;;;5006852;28;20540;-76
2023/09/15 07:57:38;;;;;;;8.87;2.50;;;21.90;99.80;;;;;;5011101;28;20900;-76
2023/09/15 08:00:10;;;;;;;4.30;2.80;;;22.00;99.80;;;;;;5005873;28;20210;-75
2023/09/15 08:02:36;;;;;;;16.10;4.50;;;21.80;99.70;;;;;;5011464;28;21014;-75
2023/09/15 08:05:03;;;;;;;6.30;3.00;;;22.10;99.90;;;;;;5013071;28;20422;-76
2023/09/15 08:07:28;;;;;;;5.93;3.60;;;22.50;99.20;;;;;;5007622;28;20851;-74
2023/09/15 08:09:56;;;;;;;8.23;3.90;;;22.60;98.80;;;;;;5005364;28;20548;-76
2023/09/15 08:12:23;;;;;;;6.27;3.87;;;22.60;99.00;;;;;;5008935;28;20262;-74
2023/09/15 08:14:49;;;;;;;9.53;3.77;;;22.50;98.60;;;;;;5009007;28;20437;-76
2023/09/15 08:17:15;;;;;;;6.60;3.20;;;22.30;99.10;;;;;;5010075;28;20422;-76
2023/09/15 08:19:41;;;;;;;9.50;4.03;;;22.00;99.40;;;;;;5015159;28;20460;-75
2023/09/15 08:22:07;;;;;;;7.33;3.60;;;22.00;99.30;;;;;;5006044;28;20422;-72
2023/09/15 08:24:32;;;;;;;6.80;3.30;;;21.90;99.30;;;;;;5012721;28;20220;-76
2023/09/15 08:26:58;;;;;;;7.07;3.63;;;21.80;99.90;;;;;;5017441;28;20203;-75
2023/09/15 08:29:23;;;;;;;7.13;3.47;;;21.50;99.90;;;;;;5008454;28;20207;-76
2023/09/15 08:31:49;;;;;;;10.40;3.63;;;21.60;99.90;;;;;;5016898;28;20183;-76
2023/09/15 08:34:15;;;;;;;6.40;3.77;;;21.30;99.90;;;;;;5008807;28;20208;-74
2023/09/15 08:36:41;;;;;;;6.53;3.40;;;21.50;99.90;;;;;;5009233;28;20239;-76
2023/09/15 08:39:07;;;;;;;6.03;3.00;;;22.00;99.90;;;;;;5012563;28;20211;-77
2023/09/15 08:41:54;;;;;;;10.90;3.87;;;22.30;99.70;;;;;;5034516;28;20446;-77
2023/09/15 08:44:21;;;;;;;8.90;3.17;;;22.30;98.60;;;;;;5032040;28;20201;-78
2023/09/15 08:46:48;;;;;;;6.20;3.20;;;22.50;99.30;;;;;;5037281;28;20512;-77
2023/09/15 08:49:15;;;;;;;8.50;4.10;;;22.60;98.40;;;;;;5029357;28;20485;-76
2023/09/15 08:51:43;;;;;;;6.50;3.53;;;22.50;98.30;;;;;;5008978;28;20421;-76
2023/09/15 08:54:10;;;;;;;5.60;3.10;;;22.70;98.80;;;;;;5011440;28;20468;-76
2023/09/15 08:56:36;;;;;;;5.83;3.00;;;23.10;97.40;;;;;;5011798;28;20414;-76
2023/09/15 08:59:03;;;;;;;6.83;2.40;;;23.10;98.40;;;;;;5014094;28;20449;-76
2023/09/15 09:01:30;;;;;;;11.60;4.10;;;23.10;98.70;;;;;;5012774;28;20973;-76
2023/09/15 09:03:56;;;;;;;9.77;3.23;;;22.80;98.20;;;;;;5014114;28;20437;-72
2023/09/15 09:06:23;;;;;;;8.37;2.87;;;22.70;98.80;;;;;;5016376;28;20483;-75
2023/09/15 09:08:49;;;;;;;6.83;3.57;;;23.20;98.40;;;;;;5005275;28;20253;-76
2023/09/15 09:11:15;;;;;;;8.13;2.90;;;23.10;97.90;;;;;;5000163;28;20437;-76
2023/09/15 09:13:41;;;;;;;5.20;3.50;;;23.40;98.10;;;;;;5005494;28;20178;-77
2023/09/15 09:16:07;;;;;;;5.13;3.00;;;23.80;97.30;;;;;;5005525;28;20552;-76
2023/09/15 09:18:33;;;;;;;8.03;2.97;;;23.80;96.90;;;;;;5005256;28;20195;-77
2023/09/15 09:21:02;;;;;;;7.00;3.50;;;23.60;97.40;;;;;;5010804;28;20182;-74
2023/09/15 09:23:28;;;;;;;11.00;4.23;;;23.40;98.30;;;;;;5014489;28;20183;-75
2023/09/15 09:25:53;;;;;;;5.53;3.70;;;23.00;98.50;;;;;;5015690;28;20216;-76
2023/09/15 09:28:21;;;;;;;7.80;3.83;;;23.10;99.10;;;;;;5005730;28;20210;-76
2023/09/15 09:30:46;;;;;;;6.40;3.63;;;23.40;98.20;;;;;;5011791;28;20237;-77
2023/09/15 09:33:12;;;;;;;6.70;3.40;;;23.30;98.00;;;;;;5001101;28;20422;-76
2023/09/15 09:35:39;;;;;;;5.10;3.30;;;23.40;98.40;;;;;;5023514;28;20227;-76
2023/09/15 09:38:04;;;;;;;6.13;3.40;;;24.00;97.50;;;;;;5007775;28;20333;-76
2023/09/15 09:40:32;;;;;;;6.73;3.10;;;24.00;97.80;;;;;;5011717;28;20348;-76
2023/09/15 09:42:58;;;;;;;6.60;3.70;;;23.70;97.60;;;;;;5013537;28;20193;-77
2023/09/15 09:45:30;;;;;;;4.03;2.70;;;23.20;98.60;;;;;;5012157;28;20421;-77
2023/09/15 09:47:58;;;;;;;5.77;3.70;;;22.90;98.70;;;;;;5011975;28;20210;-75
2023/09/15 09:50:26;;;;;;;26.57;5.00;;;23.00;98.80;;;;;;5012637;28;20438;-74
2023/09/15 09:52:52;;;;;;;11.10;5.27;;;22.90;98.20;;;;;;5008260;28;20513;-76
2023/09/15 09:55:19;;;;;;;5.23;3.87;;;22.80;98.20;;;;;;5006536;28;20457;-75
2023/09/15 09:57:44;;;;;;;7.27;4.63;;;22.70;98.60;;;;;;5010727;28;20247;-76
2023/09/15 10:00:10;;;;;;;8.43;4.53;;;22.60;99.00;;;;;;5028748;28;20454;-76
2023/09/15 10:02:39;;;;;;;9.50;4.93;;;22.60;98.80;;;;;;5038038;28;20194;-77
2023/09/15 10:05:05;;;;;;;10.27;5.00;;;22.20;99.30;;;;;;5032493;28;20424;-75
2023/09/15 10:07:31;;;;;;;5.43;3.53;;;22.20;99.90;;;;;;5034256;28;20478;-75
2023/09/15 10:09:58;;;;;;;5.17;2.73;;;22.40;99.30;;;;;;5024204;28;20249;-75
2023/09/15 10:12:24;;;;;;;8.13;4.03;;;22.30;99.60;;;;;;5007982;28;20490;-75
2023/09/15 10:14:51;;;;;;;5.30;3.07;;;22.30;99.70;;;;;;5000218;28;20438;-75
2023/09/15 10:17:20;;;;;;;6.23;3.27;;;22.20;99.20;;;;;;5009316;28;20418;-75
2023/09/15 10:19:48;;;;;;;5.83;3.20;;;22.30;98.90;;;;;;5001426;28;20465;-75
2023/09/15 10:22:17;;;;;;;9.60;3.80;;;22.40;99.90;;;;;;5009886;28;20425;-75
2023/09/15 10:24:44;;;;;;;7.80;4.37;;;22.60;99.60;;;;;;5009842;28;20433;-74
2023/09/15 10:27:11;;;;;;;4.03;2.40;;;22.90;98.60;;;;;;5011855;28;20999;-75
2023/09/15 10:29:39;;;;;;;12.47;3.87;;;22.80;99.10;;;;;;5012149;28;20987;-75
2023/09/15 10:32:05;;;;;;;8.33;3.73;;;22.70;99.20;;;;;;5008447;28;20450;-75
2023/09/15 10:34:32;;;;;;;4.40;2.37;;;22.90;98.20;;;;;;5009557;28;21668;-75
2023/09/15 10:37:04;;;;;;;5.20;3.00;;;22.80;98.40;;;;;;5001799;28;20469;-74
2023/09/15 10:39:37;;;;;;;8.20;5.00;;;23.00;98.20;;;;;;5010543;28;20460;-76
2023/09/15 10:42:15;;;;;;;10.13;5.70;;;22.70;97.90;;;;;;5003713;28;20840;-75
2023/09/15 10:44:42;;;;;;;10.50;5.43;;;22.90;97.70;;;;;;5002671;28;21013;-75
2023/09/15 10:47:18;;;;;;;13.53;6.00;;;23.10;98.20;;;;;;5004212;28;20496;-75
2023/09/15 10:49:54;;;;;;;16.63;5.17;;;23.10;97.60;;;;;;5007100;28;20441;-72
2023/09/15 10:52:34;;;;;;;9.00;5.40;;;23.10;97.90;;;;;;5004115;28;20420;-75
2023/09/15 10:55:00;;;;;;;9.20;5.80;;;23.20;97.80;;;;;;5006610;28;20516;-75
2023/09/15 10:57:27;;;;;;;6.20;5.43;;;23.20;98.10;;;;;;5000066;28;20525;-72
2023/09/15 10:59:56;;;;;;;7.07;5.17;;;23.20;97.60;;;;;;5000048;28;21071;-74
2023/09/15 11:02:24;;;;;;;7.50;5.00;;;23.30;97.90;;;;;;5008090;28;20452;-75
2023/09/15 11:04:49;;;;;;;10.23;4.93;;;23.50;97.40;;;;;;5006023;28;20548;-76
2023/09/15 11:07:16;;;;;;;6.00;4.83;;;23.80;96.80;;;;;;5003603;28;20571;-75
2023/09/15 11:09:42;;;;;;;9.20;5.20;;;23.40;97.50;;;;;;5004455;28;20256;-75
2023/09/15 11:12:10;;;;;;;6.27;5.00;;;23.50;97.70;;;;;;5003657;28;20444;-72
2023/09/15 11:14:36;;;;;;;7.37;5.50;;;23.30;97.90;;;;;;5006362;28;20464;-76
2023/09/15 11:17:03;;;;;;;9.50;5.30;;;23.50;98.40;;;;;;5002783;28;20450;-73
2023/09/15 11:19:32;;;;;;;9.60;5.33;;;23.60;98.00;;;;;;5011603;28;20225;-75
2023/09/15 11:22:04;;;;;;;5.40;4.40;;;23.70;97.80;;;;;;5006463;28;20774;-74
2023/09/15 11:24:33;;;;;;;8.20;5.80;;;23.80;98.00;;;;;;5009180;28;20429;-77
2023/09/15 11:27:00;;;;;;;6.87;4.07;;;23.60;97.60;;;;;;5014054;28;20435;-77
2023/09/15 11:29:27;;;;;;;9.10;3.87;;;23.50;97.70;;;;;;5005379;28;21109;-77
2023/09/15 11:31:54;;;;;;;7.37;4.50;;;23.80;97.70;;;;;;5006927;28;20445;-76
2023/09/15 11:34:20;;;;;;;8.10;4.80;;;24.00;97.30;;;;;;5009687;28;21268;-76
2023/09/15 11:36:47;;;;;;;11.23;5.10;;;24.00;97.70;;;;;;5013049;28;20471;-77
2023/09/15 11:39:15;;;;;;;6.23;4.27;;;24.20;96.50;;;;;;5009974;28;20472;-74
2023/09/15 11:41:53;;;;;;;7.33;4.53;;;24.10;97.00;;;;;;5010527;28;20416;-77
2023/09/15 11:44:24;;;;;;;5.70;4.50;;;24.50;96.20;;;;;;5007168;28;20422;-76
2023/09/15 11:46:50;;;;;;;5.60;4.27;;;24.40;95.90;;;;;;5006380;28;20414;-76
2023/09/15 11:49:18;;;;;;;9.20;5.00;;;24.40;96.20;;;;;;5006525;28;20516;-77
2023/09/15 11:51:44;;;;;;;7.43;4.10;;;24.50;95.60;;;;;;5004302;28;20483;-77
2023/09/15 11:54:10;;;;;;;4.97;4.20;;;24.70;96.10;;;;;;5000591;28;20426;-77
2023/09/15 11:56:37;;;;;;;6.53;3.90;;;24.70;95.70;;;;;;5006638;28;20410;-76
2023/09/15 11:59:03;;;;;;;3.83;2.30;;;24.70;95.40;;;;;;5005627;28;20257;-72
2023/09/15 12:01:31;;;;;;;4.73;3.00;;;24.70;95.20;;;;;;5002456;28;20409;-76
2023/09/15 12:03:57;;;;;;;4.63;2.80;;;25.00;95.90;;;;;;5008406;28;20187;-76
2023/09/15 12:06:23;;;;;;;6.20;3.23;;;25.00;96.40;;;;;;5010594;28;20418;-77
2023/09/15 12:08:51;;;;;;;5.33;3.37;;;25.30;94.60;;;;;;5005748;28;20492;-76
2023/09/15 12:11:17;;;;;;;5.90;2.63;;;25.30;94.70;;;;;;5008653;28;20429;-75
2023/09/15 12:13:43;;;;;;;4.43;2.37;;;25.30;95.00;;;;;;5011561;28;20430;-76
2023/09/15 12:16:17;;;;;;;4.07;2.97;;;25.50;95.10;;;;;;5010452;28;20886;-76
2023/09/15 12:18:45;;;;;;;4.83;2.77;;;25.40;94.20;;;;;;4999404;28;20536;-73
2023/09/15 12:21:12;;;;;;;4.10;2.57;;;25.80;94.00;;;;;;5013404;28;20506;-77
2023/09/15 12:23:38;;;;;;;8.00;2.60;;;25.80;93.70;;;;;;5007984;28;20433;-77
2023/09/15 12:26:03;;;;;;;3.97;2.20;;;25.90;92.40;;;;;;5000217;28;20427;-73
2023/09/15 12:28:29;;;;;;;4.47;2.33;;;25.70;93.90;;;;;;5005945;28;20222;-76
2023/09/15 12:30:58;;;;;;;3.90;2.60;;;25.40;93.70;;;;;;5007929;28;20328;-75
2023/09/15 12:33:26;;;;;;;7.33;2.50;;;25.50;94.10;;;;;;5005118;28;20220;-75
2023/09/15 12:35:52;;;;;;;4.90;2.13;;;25.50;94.40;;;;;;5008095;28;20413;-75
2023/09/15 12:38:18;;;;;;;6.07;2.80;;;25.90;93.20;;;;;;5001755;28;20423;-73
2023/09/15 12:40:48;;;;;;;5.40;3.10;;;26.00;92.60;;;;;;5004542;28;20962;-76
2023/09/15 12:43:14;;;;;;;5.60;3.07;;;25.40;93.70;;;;;;5000405;28;20280;-76